JAL121 CYVR-RJAA
Flight info
| Callsign | JAL121 |
|---|---|
| Flight time | N/A |
| Altitude | 34000 |
| Route | UQQ DCT JOWEN DCT LOHNE DCT ARCAL DCT 60N160W/N0486F360 DCT NOLTI R220 NATES/N0482F370 R220 NRKEY/N0495F380 R220 NUBDA/N0489F390 R220 NANAC/N0484F380 Y810 OLDIV Y809 SUPOK |
| Aircraft | B77W/H-SDE1E2E3FGHIJ2J3J4J5M1RWXY/LB1D1 |
Departure
| Time | 2026-05-05 01:04 |
|---|---|
| Airport | Vancouver International Airport (CYVR) |
Arrival
| Time | N/A |
|---|---|
| Airport | Narita International Airport (RJAA) |
| Time | Latitude | Longitude | Altitude | Speed | Heading |
|---|---|---|---|---|---|
| 2026-05-05 00:21 | 49.19950 | -123.18137 | 24 ft | 0 kts | 189° |
| 2026-05-05 00:39 | 49.19964 | -123.18133 | 27 ft | 2 kts | 189° |
| 2026-05-05 00:39 | 49.19980 | -123.18129 | 27 ft | 2 kts | 189° |
| 2026-05-05 00:39 | 49.19996 | -123.18125 | 27 ft | 2 kts | 216° |
| 2026-05-05 00:39 | 49.20003 | -123.18111 | 28 ft | 0 kts | 284° |
| 2026-05-05 00:47 | 49.20003 | -123.18114 | 28 ft | 3 kts | 283° |
| 2026-05-05 00:47 | 49.20011 | -123.18192 | 29 ft | 10 kts | 278° |
| 2026-05-05 00:47 | 49.20020 | -123.18298 | 25 ft | 10 kts | 279° |
| 2026-05-05 00:48 | 49.20041 | -123.18399 | 26 ft | 10 kts | 285° |
| 2026-05-05 00:48 | 49.20032 | -123.18504 | 28 ft | 10 kts | 245° |
| 2026-05-05 00:48 | 49.20002 | -123.18530 | 26 ft | 5 kts | 186° |
| 2026-05-05 00:48 | 49.19963 | -123.18536 | 25 ft | 6 kts | 187° |
| 2026-05-05 00:49 | 49.19921 | -123.18543 | 28 ft | 6 kts | 185° |
| 2026-05-05 00:49 | 49.19875 | -123.18552 | 26 ft | 7 kts | 189° |
| 2026-05-05 00:49 | 49.19827 | -123.18565 | 24 ft | 7 kts | 188° |
| 2026-05-05 00:49 | 49.19776 | -123.18586 | 26 ft | 8 kts | 204° |
| 2026-05-05 00:50 | 49.19727 | -123.18620 | 27 ft | 8 kts | 206° |
| 2026-05-05 00:50 | 49.19680 | -123.18659 | 25 ft | 8 kts | 206° |
| 2026-05-05 00:50 | 49.19629 | -123.18680 | 26 ft | 8 kts | 187° |
| 2026-05-05 00:50 | 49.19574 | -123.18685 | 23 ft | 8 kts | 183° |
| 2026-05-05 00:51 | 49.19516 | -123.18702 | 26 ft | 9 kts | 193° |
| 2026-05-05 00:51 | 49.19456 | -123.18717 | 24 ft | 9 kts | 186° |
| 2026-05-05 00:51 | 49.19394 | -123.18700 | 22 ft | 9 kts | 156° |
| 2026-05-05 00:51 | 49.19332 | -123.18700 | 22 ft | 9 kts | 192° |
| 2026-05-05 00:52 | 49.19268 | -123.18712 | 24 ft | 9 kts | 182° |
| 2026-05-05 00:52 | 49.19205 | -123.18726 | 23 ft | 9 kts | 182° |
| 2026-05-05 00:52 | 49.19149 | -123.18686 | 24 ft | 9 kts | 143° |
| 2026-05-05 00:52 | 49.19101 | -123.18618 | 24 ft | 9 kts | 136° |
| 2026-05-05 00:53 | 49.19054 | -123.18553 | 23 ft | 9 kts | 141° |
| 2026-05-05 00:53 | 49.19001 | -123.18496 | 24 ft | 9 kts | 150° |
| 2026-05-05 00:53 | 49.18960 | -123.18425 | 23 ft | 9 kts | 107° |
| 2026-05-05 00:53 | 49.18946 | -123.18328 | 25 ft | 9 kts | 100° |
| 2026-05-05 00:54 | 49.18936 | -123.18231 | 24 ft | 9 kts | 103° |
| 2026-05-05 00:54 | 49.18925 | -123.18133 | 24 ft | 9 kts | 98° |
| 2026-05-05 00:54 | 49.18913 | -123.18036 | 24 ft | 9 kts | 102° |
| 2026-05-05 00:54 | 49.18898 | -123.17940 | 22 ft | 9 kts | 102° |
| 2026-05-05 00:55 | 49.18888 | -123.17842 | 22 ft | 9 kts | 98° |
| 2026-05-05 00:55 | 49.18881 | -123.17744 | 24 ft | 9 kts | 94° |
| 2026-05-05 00:55 | 49.18874 | -123.17647 | 23 ft | 9 kts | 99° |
| 2026-05-05 00:55 | 49.18862 | -123.17550 | 25 ft | 9 kts | 102° |
| 2026-05-05 00:56 | 49.18848 | -123.17454 | 25 ft | 9 kts | 103° |
| 2026-05-05 00:56 | 49.18836 | -123.17356 | 23 ft | 9 kts | 100° |
| 2026-05-05 00:56 | 49.18824 | -123.17259 | 21 ft | 9 kts | 99° |
| 2026-05-05 00:56 | 49.18816 | -123.17161 | 24 ft | 9 kts | 97° |
| 2026-05-05 00:57 | 49.18805 | -123.17064 | 25 ft | 9 kts | 99° |
| 2026-05-05 00:57 | 49.18793 | -123.16967 | 24 ft | 9 kts | 100° |
| 2026-05-05 00:57 | 49.18784 | -123.16869 | 24 ft | 9 kts | 99° |
| 2026-05-05 00:57 | 49.18771 | -123.16772 | 23 ft | 9 kts | 103° |
| 2026-05-05 00:58 | 49.18757 | -123.16677 | 23 ft | 9 kts | 101° |
| 2026-05-05 00:58 | 49.18751 | -123.16578 | 21 ft | 9 kts | 94° |
| 2026-05-05 00:58 | 49.18734 | -123.16483 | 23 ft | 9 kts | 110° |
| 2026-05-05 00:58 | 49.18719 | -123.16387 | 24 ft | 9 kts | 98° |
| 2026-05-05 00:59 | 49.18699 | -123.16295 | 25 ft | 9 kts | 124° |
| 2026-05-05 00:59 | 49.18660 | -123.16217 | 24 ft | 9 kts | 121° |
| 2026-05-05 00:59 | 49.18637 | -123.16125 | 25 ft | 9 kts | 99° |
| 2026-05-05 00:59 | 49.18627 | -123.16028 | 24 ft | 9 kts | 103° |
| 2026-05-05 01:00 | 49.18617 | -123.15930 | 24 ft | 9 kts | 97° |
| 2026-05-05 01:00 | 49.18603 | -123.15835 | 26 ft | 9 kts | 106° |
| 2026-05-05 01:00 | 49.18564 | -123.15761 | 24 ft | 9 kts | 152° |
| 2026-05-05 01:00 | 49.18525 | -123.15756 | 25 ft | 0 kts | 191° |
| 2026-05-05 01:02 | 49.18524 | -123.15756 | 25 ft | 0 kts | 191° |
| 2026-05-05 01:02 | 49.18509 | -123.15761 | 25 ft | 7 kts | 194° |
| 2026-05-05 01:03 | 49.18447 | -123.15860 | 27 ft | 20 kts | 263° |
| 2026-05-05 01:03 | 49.18461 | -123.15968 | 26 ft | 1 kts | 281° |
| 2026-05-05 01:03 | 49.18492 | -123.16239 | 24 ft | 62 kts | 277° |
| 2026-05-05 01:03 | 49.18608 | -123.17237 | 25 ft | 127 kts | 282° |
| 2026-05-05 01:04 | 49.18794 | -123.18861 | 25 ft | 179 kts | 280° |
| 2026-05-05 01:04 | 49.19171 | -123.23086 | 997 ft | 187 kts | 266° |
| 2026-05-05 01:04 | 49.19069 | -123.25037 | 1684 ft | 189 kts | 270° |
| 2026-05-05 01:05 | 49.19114 | -123.27148 | 1908 ft | 209 kts | 272° |
| 2026-05-05 01:05 | 49.19172 | -123.29482 | 2129 ft | 231 kts | 272° |
| 2026-05-05 01:05 | 49.19235 | -123.31999 | 2576 ft | 242 kts | 272° |
| 2026-05-05 01:05 | 49.19278 | -123.33713 | 2955 ft | 246 kts | 272° |
| 2026-05-05 01:06 | 49.19344 | -123.36357 | 3605 ft | 250 kts | 272° |
| 2026-05-05 01:06 | 49.19431 | -123.39890 | 4501 ft | 252 kts | 272° |
| 2026-05-05 01:06 | 49.19497 | -123.42581 | 5152 ft | 255 kts | 272° |
| 2026-05-05 01:06 | 49.19543 | -123.44425 | 5588 ft | 256 kts | 272° |
| 2026-05-05 01:07 | 49.19611 | -123.47160 | 6214 ft | 259 kts | 272° |
| 2026-05-05 01:07 | 49.19803 | -123.49892 | 6747 ft | 261 kts | 289° |
| 2026-05-05 01:07 | 49.20663 | -123.52301 | 7212 ft | 264 kts | 303° |
| 2026-05-05 01:07 | 49.21679 | -123.54665 | 7783 ft | 267 kts | 302° |
| 2026-05-05 01:08 | 49.22678 | -123.57063 | 8423 ft | 268 kts | 302° |
| 2026-05-05 01:08 | 49.23665 | -123.59498 | 9028 ft | 270 kts | 301° |
| 2026-05-05 01:08 | 49.24645 | -123.61971 | 9573 ft | 274 kts | 301° |
| 2026-05-05 01:08 | 49.25634 | -123.64515 | 10026 ft | 282 kts | 300° |
| 2026-05-05 01:09 | 49.26645 | -123.67149 | 10440 ft | 294 kts | 300° |
| 2026-05-05 01:09 | 49.27712 | -123.69960 | 10606 ft | 316 kts | 300° |
| 2026-05-05 01:09 | 49.28850 | -123.72981 | 10797 ft | 338 kts | 300° |
| 2026-05-05 01:09 | 49.30064 | -123.76222 | 10983 ft | 360 kts | 300° |
| 2026-05-05 01:10 | 49.31310 | -123.79567 | 11500 ft | 371 kts | 299° |
| 2026-05-05 01:10 | 49.32600 | -123.83039 | 12200 ft | 378 kts | 299° |
| 2026-05-05 01:10 | 49.33905 | -123.86564 | 13050 ft | 382 kts | 299° |
| 2026-05-05 01:10 | 49.35220 | -123.90122 | 13887 ft | 385 kts | 299° |
| 2026-05-05 01:11 | 49.36549 | -123.93727 | 14672 ft | 390 kts | 299° |
| 2026-05-05 01:11 | 49.37892 | -123.97371 | 15438 ft | 395 kts | 299° |
| 2026-05-05 01:11 | 49.39247 | -124.01057 | 16169 ft | 399 kts | 299° |
| 2026-05-05 01:11 | 49.40618 | -124.04790 | 16917 ft | 404 kts | 299° |
| 2026-05-05 01:12 | 49.42007 | -124.08580 | 17640 ft | 408 kts | 299° |
| 2026-05-05 01:12 | 49.43407 | -124.12403 | 18339 ft | 412 kts | 299° |
| 2026-05-05 01:12 | 49.44819 | -124.16264 | 19023 ft | 416 kts | 299° |
| 2026-05-05 01:12 | 49.46227 | -124.20120 | 19667 ft | 421 kts | 299° |
| 2026-05-05 01:13 | 49.47664 | -124.24063 | 20315 ft | 425 kts | 299° |
| 2026-05-05 01:13 | 49.49117 | -124.28054 | 20949 ft | 429 kts | 299° |
| 2026-05-05 01:13 | 49.50579 | -124.32079 | 21555 ft | 433 kts | 299° |
| 2026-05-05 01:13 | 49.52057 | -124.36150 | 22161 ft | 437 kts | 299° |
| 2026-05-05 01:14 | 49.53543 | -124.40252 | 22740 ft | 440 kts | 299° |
| 2026-05-05 01:14 | 49.55038 | -124.44385 | 23297 ft | 444 kts | 299° |
| 2026-05-05 01:14 | 49.56545 | -124.48559 | 23835 ft | 448 kts | 299° |
| 2026-05-05 01:14 | 49.58063 | -124.52768 | 24349 ft | 451 kts | 299° |
| 2026-05-05 01:15 | 49.59591 | -124.57014 | 24846 ft | 455 kts | 299° |
| 2026-05-05 01:15 | 49.61132 | -124.61303 | 25333 ft | 458 kts | 298° |
| 2026-05-05 01:15 | 49.62680 | -124.65617 | 25834 ft | 461 kts | 298° |
| 2026-05-05 01:15 | 49.64238 | -124.69967 | 26276 ft | 465 kts | 298° |
| 2026-05-05 01:16 | 49.65803 | -124.74345 | 26716 ft | 468 kts | 298° |
| 2026-05-05 01:16 | 49.67382 | -124.78767 | 27147 ft | 471 kts | 298° |
| 2026-05-05 01:16 | 49.68965 | -124.83207 | 27560 ft | 474 kts | 298° |
| 2026-05-05 01:16 | 49.70587 | -124.87661 | 27958 ft | 477 kts | 301° |
| 2026-05-05 01:17 | 49.72438 | -124.91935 | 28323 ft | 480 kts | 307° |
| 2026-05-05 01:17 | 49.74560 | -124.95939 | 28679 ft | 482 kts | 310° |
| 2026-05-05 01:17 | 49.76745 | -124.99909 | 29012 ft | 485 kts | 310° |
| 2026-05-05 01:17 | 49.78944 | -125.03888 | 29340 ft | 488 kts | 310° |
| 2026-05-05 01:18 | 49.81124 | -125.07845 | 29637 ft | 490 kts | 310° |
| 2026-05-05 01:18 | 49.83361 | -125.11935 | 29972 ft | 491 kts | 310° |
| 2026-05-05 01:18 | 49.85529 | -125.15924 | 30386 ft | 490 kts | 310° |
| 2026-05-05 01:18 | 49.87707 | -125.19953 | 30818 ft | 489 kts | 310° |
| 2026-05-05 01:19 | 49.89888 | -125.24003 | 31226 ft | 487 kts | 309° |
| 2026-05-05 01:19 | 49.92058 | -125.28044 | 31599 ft | 487 kts | 309° |
| 2026-05-05 01:19 | 49.94228 | -125.32092 | 31935 ft | 487 kts | 309° |
| 2026-05-05 01:19 | 49.96402 | -125.36154 | 32052 ft | 491 kts | 309° |
| 2026-05-05 01:20 | 50.00771 | -125.44332 | 32091 ft | 490 kts | 309° |
| 2026-05-05 01:20 | 50.05092 | -125.52442 | 32098 ft | 485 kts | 309° |
| 2026-05-05 01:21 | 50.09373 | -125.60502 | 32097 ft | 487 kts | 309° |
| 2026-05-05 01:21 | 50.13685 | -125.68645 | 32102 ft | 487 kts | 309° |
| 2026-05-05 01:22 | 50.18000 | -125.76820 | 32102 ft | 488 kts | 309° |
| 2026-05-05 01:22 | 50.22311 | -125.85014 | 32090 ft | 489 kts | 309° |
| 2026-05-05 01:23 | 50.26627 | -125.93241 | 32094 ft | 490 kts | 309° |
| 2026-05-05 01:23 | 50.30945 | -126.01498 | 32093 ft | 490 kts | 309° |
| 2026-05-05 01:24 | 50.35249 | -126.09756 | 32094 ft | 490 kts | 309° |
| 2026-05-05 01:24 | 50.39550 | -126.18035 | 32095 ft | 489 kts | 309° |
| 2026-05-05 01:25 | 50.43837 | -126.26310 | 32098 ft | 488 kts | 309° |
| 2026-05-05 01:25 | 50.48080 | -126.34529 | 32099 ft | 486 kts | 309° |
| 2026-05-05 01:26 | 50.52330 | -126.42788 | 32095 ft | 485 kts | 309° |
| 2026-05-05 01:26 | 50.56572 | -126.51057 | 32103 ft | 485 kts | 309° |
| 2026-05-05 01:27 | 50.60798 | -126.59319 | 32097 ft | 484 kts | 308° |
| 2026-05-05 01:27 | 50.64998 | -126.67558 | 32103 ft | 485 kts | 308° |
| 2026-05-05 01:28 | 50.69222 | -126.75870 | 32096 ft | 485 kts | 308° |
| 2026-05-05 01:28 | 50.73440 | -126.84198 | 32100 ft | 485 kts | 308° |
| 2026-05-05 01:29 | 50.77624 | -126.92484 | 32102 ft | 485 kts | 308° |
| 2026-05-05 01:29 | 50.81827 | -127.00835 | 32100 ft | 486 kts | 308° |
| 2026-05-05 01:30 | 50.87214 | -127.11578 | 32103 ft | 486 kts | 308° |
| 2026-05-05 01:30 | 50.95605 | -127.28400 | 32101 ft | 487 kts | 308° |
| 2026-05-05 01:31 | 51.03994 | -127.45328 | 32090 ft | 487 kts | 308° |
| 2026-05-05 01:31 | 51.15655 | -127.69045 | 32090 ft | 487 kts | 308° |
| 2026-05-05 01:32 | 51.32293 | -128.03265 | 32095 ft | 486 kts | 307° |
| 2026-05-05 01:32 | 51.48668 | -128.37391 | 32102 ft | 486 kts | 307° |
| 2026-05-05 01:33 | 51.65040 | -128.71969 | 32102 ft | 485 kts | 307° |
| 2026-05-05 01:33 | 51.81333 | -129.06846 | 32102 ft | 485 kts | 307° |
| 2026-05-05 01:34 | 51.97420 | -129.41752 | 32103 ft | 486 kts | 306° |
| 2026-05-05 01:34 | 52.13473 | -129.77066 | 32103 ft | 486 kts | 306° |
| 2026-05-05 01:35 | 52.29461 | -130.12724 | 32103 ft | 486 kts | 306° |
| 2026-05-05 01:35 | 52.45312 | -130.48577 | 32102 ft | 486 kts | 306° |
| 2026-05-05 01:36 | 52.61041 | -130.84656 | 32103 ft | 486 kts | 305° |
| 2026-05-05 01:36 | 52.76579 | -131.20807 | 32102 ft | 486 kts | 305° |
| 2026-05-05 01:37 | 52.92197 | -131.57668 | 32102 ft | 486 kts | 304° |
| 2026-05-05 01:37 | 53.07521 | -131.94363 | 32114 ft | 486 kts | 304° |
| 2026-05-05 01:38 | 53.22846 | -132.31601 | 32116 ft | 487 kts | 304° |
| 2026-05-05 01:38 | 53.38072 | -132.69149 | 32101 ft | 488 kts | 304° |
| 2026-05-05 01:39 | 53.53180 | -133.06968 | 32094 ft | 486 kts | 303° |
| 2026-05-05 01:39 | 53.68130 | -133.44959 | 32099 ft | 486 kts | 303° |
| 2026-05-05 01:40 | 53.82938 | -133.83166 | 32102 ft | 485 kts | 303° |
| 2026-05-05 01:40 | 53.97514 | -134.21356 | 32102 ft | 485 kts | 302° |
| 2026-05-05 01:41 | 54.04635 | -134.40226 | 32102 ft | 486 kts | 302° |
| 2026-05-05 01:41 | 54.08305 | -134.49897 | 32114 ft | 485 kts | 305° |